Terminal Aerodrome Forecast
Issued by NWS Charleston, WV

Home | Current Version | Previous Version | Text Only | Print | Product List | Glossary On
Versions: 1 2 3 4 5 6 7 8 9 10 11 12 13 14 15 16 17 18 19 20 21
785
FTUS41 KRLX 271120
TAFCRW
TAF
KCRW 271120Z 2712/2812 00000KT 5SM BR FEW001 BKN090
     FM271230 22005KT P6SM SCT090
     FM280900 00000KT 4SM BR BKN200=

USA.gov is the U.S. government's official web portal to all federal, state and local government web resources and services.